PWSweather.com
Personal Weather Stations
Station Observations
BANARIES
Huesca, HuescaES 22194

HuescaHuescaES 22194

Lat: 42.1313, Lon: -0.4666

Elevation: 1560

Station Type: Davis Vantage Vue

Latest ConditionsUpdated 2:30:00 PM GMT+01:01 Saturday, Mar 25, 2017
Currently Today's Max Today's Min Today's Average
Temperature 35.2°F1.8°C 41.1°F5.1°C 34.0°F1.1°C 36.2°F2.3°C
Dew Point 34.9°F1.6°C 37.5°F3.1°C 33.7°F0.9°C 35.6°F2.0°C
Winds 11.2 mph ESE18.0 kmh ESE 11.9 mph NW19.2 kmh NW - 8.0 mph 12.9 kmh
Wind Gusts 16.0 mph25.7 kmh 23.0 mph37.0 kmh - -
Humidity 99% 99% 86% 98%
Pressure 30.00 in1015.9 mb 30.00 in1015.9 mb 29.79 in1008.8 mb -
Precipitation - 1.12 in28.4 mm - -
Hour Temp Dew Point Humidity Winds Wind Gusts Pressure Precip Precip Rate Daily Precip Total
02:30 PM 35.2°F1.8°C 34.9°F1.6°C 99% 11.2 mph ESE18.0 kmh ESE 16.0 mph25.7 kmh 30.00 in1015.9 mb 0.06 in1.5 mm 0.00 in0.0 mm 1.12 in28.4 mm
02:15 PM 35.0°F1.7°C 34.7°F1.5°C 99% 11.1 mph ESE17.9 kmh ESE 17.0 mph27.4 kmh 30.00 in1015.9 mb 0.07 in1.8 mm 0.00 in0.0 mm 1.11 in28.2 mm
02:00 PM 34.4°F1.3°C 34.1°F1.2°C 99% 9.9 mph ESE15.9 kmh ESE 15.0 mph24.1 kmh 30.00 in1015.9 mb 0.08 in2.0 mm 0.00 in0.0 mm 1.09 in27.7 mm
01:45 PM 34.0°F1.1°C 33.7°F0.9°C 99% 7.3 mph ESE11.7 kmh ESE 12.0 mph19.3 kmh 29.99 in1015.6 mb 0.08 in2.0 mm 0.00 in0.0 mm 1.07 in27.2 mm
01:30 PM 34.3°F1.3°C 34.0°F1.1°C 99% 6.9 mph ESE11.1 kmh ESE 11.0 mph17.7 kmh 29.99 in1015.6 mb 0.09 in2.3 mm 0.00 in0.0 mm 1.06 in26.9 mm
01:15 PM 34.2°F1.2°C 33.9°F1.1°C 99% 5.6 mph SE9.0 kmh SE 9.0 mph14.5 kmh 29.99 in1015.6 mb 0.09 in2.3 mm 0.00 in0.0 mm 1.04 in26.4 mm
01:00 PM 34.2°F1.2°C 33.9°F1.1°C 99% 4.0 mph SE6.4 kmh SE 8.0 mph12.9 kmh 29.98 in1015.2 mb 0.09 in2.3 mm 0.00 in0.0 mm 1.02 in25.9 mm
12:45 PM 35.0°F1.7°C 34.7°F1.5°C 99% 3.0 mph SSE4.8 kmh SSE 7.0 mph11.3 kmh 29.98 in1015.2 mb 0.09 in2.3 mm 0.04 in1.0 mm 0.99 in25.1 mm
12:30 PM 35.4°F1.9°C 35.1°F1.7°C 99% 3.9 mph SSE6.3 kmh SSE 9.0 mph14.5 kmh 29.97 in1014.9 mb 0.08 in2.0 mm 0.00 in0.0 mm 0.96 in24.4 mm
12:15 PM 35.1°F1.7°C 34.8°F1.6°C 99% 0.9 mph S1.4 kmh S 5.0 mph8.0 kmh 29.96 in1014.6 mb 0.08 in2.0 mm 0.04 in1.0 mm 0.94 in23.9 mm
12:00 PM 34.8°F1.6°C 34.5°F1.4°C 99% 1.9 mph SW3.1 kmh SW 6.0 mph9.7 kmh 29.95 in1014.2 mb 0.07 in1.8 mm 0.01 in0.3 mm 0.92 in23.4 mm
11:45 AM 34.6°F1.4°C 34.3°F1.3°C 99% 2.1 mph WSW3.4 kmh WSW 6.0 mph9.7 kmh 29.95 in1014.2 mb 0.06 in1.5 mm 0.04 in1.0 mm 0.91 in23.1 mm
11:30 AM 34.3°F1.3°C 33.8°F1.0°C 98% 3.7 mph WSW6.0 kmh WSW 8.0 mph12.9 kmh 29.94 in1013.9 mb 0.05 in1.3 mm 0.08 in2.0 mm 0.88 in22.4 mm
11:15 AM 34.8°F1.6°C 34.5°F1.4°C 99% 3.8 mph W6.1 kmh W 9.0 mph14.5 kmh 29.93 in1013.5 mb 0.03 in0.8 mm 0.00 in0.0 mm 0.87 in22.1 mm
11:00 AM 35.0°F1.7°C 34.7°F1.5°C 99% 5.5 mph W8.9 kmh W 10.0 mph16.1 kmh 29.92 in1013.2 mb 0.03 in0.8 mm 0.00 in0.0 mm 0.85 in21.6 mm
10:45 AM 35.4°F1.9°C 35.1°F1.7°C 99% 7.4 mph W11.9 kmh W 15.0 mph24.1 kmh 29.90 in1012.5 mb 0.04 in1.0 mm 0.00 in0.0 mm 0.84 in21.3 mm
10:30 AM 35.7°F2.1°C 35.4°F1.9°C 99% 9.3 mph WNW15.0 kmh WNW 19.0 mph30.6 kmh 29.89 in1012.2 mb 0.05 in1.3 mm 0.00 in0.0 mm 0.83 in21.1 mm
10:15 AM 35.9°F2.2°C 35.6°F2.0°C 99% 9.4 mph WNW15.1 kmh WNW 19.0 mph30.6 kmh 29.88 in1011.9 mb 0.05 in1.3 mm 0.00 in0.0 mm 0.83 in21.1 mm
10:00 AM 36.2°F2.3°C 35.9°F2.2°C 99% 8.1 mph WNW13.0 kmh WNW 17.0 mph27.4 kmh 29.88 in1011.9 mb 0.06 in1.5 mm 0.00 in0.0 mm 0.82 in20.8 mm
09:45 AM 36.2°F2.3°C 35.9°F2.2°C 99% 6.8 mph WNW10.9 kmh WNW 16.0 mph25.7 kmh 29.87 in1011.5 mb 0.06 in1.5 mm 0.04 in1.0 mm 0.80 in20.3 mm
09:30 AM 36.2°F2.3°C 35.9°F2.2°C 99% 7.5 mph NW12.1 kmh NW 15.0 mph24.1 kmh 29.87 in1011.5 mb 0.05 in1.3 mm 0.00 in0.0 mm 0.79 in20.1 mm
09:15 AM 36.2°F2.3°C 35.9°F2.2°C 99% 10.0 mph NW16.1 kmh NW 20.0 mph32.2 kmh 29.86 in1011.2 mb 0.06 in1.5 mm 0.04 in1.0 mm 0.78 in19.8 mm
09:00 AM 36.1°F2.3°C 35.8°F2.1°C 99% 10.5 mph WNW16.9 kmh WNW 21.0 mph33.8 kmh 29.84 in1010.5 mb 0.05 in1.3 mm 0.00 in0.0 mm 0.76 in19.3 mm
08:45 AM 36.1°F2.3°C 35.8°F2.1°C 99% 10.9 mph NW17.5 kmh NW 19.0 mph30.6 kmh 29.84 in1010.5 mb 0.05 in1.3 mm 0.00 in0.0 mm 0.75 in19.1 mm
08:30 AM 36.2°F2.3°C 35.9°F2.2°C 99% 10.6 mph NW17.1 kmh NW 19.0 mph30.6 kmh 29.83 in1010.2 mb 0.06 in1.5 mm 0.04 in1.0 mm 0.74 in18.8 mm
08:15 AM 36.3°F2.4°C 36.0°F2.2°C 99% 11.1 mph WNW17.9 kmh WNW 21.0 mph33.8 kmh 29.82 in1009.8 mb 0.05 in1.3 mm 0.00 in0.0 mm 0.72 in18.3 mm
08:00 AM 36.6°F2.6°C 36.3°F2.4°C 99% 10.4 mph WNW16.7 kmh WNW 17.0 mph27.4 kmh 29.83 in1010.2 mb 0.06 in1.5 mm 0.00 in0.0 mm 0.72 in18.3 mm
07:45 AM 37.0°F2.8°C 36.7°F2.6°C 99% 9.9 mph NW15.9 kmh NW 19.0 mph30.6 kmh 29.83 in1010.2 mb 0.06 in1.5 mm 0.00 in0.0 mm 0.70 in17.8 mm
07:30 AM 37.2°F2.9°C 36.9°F2.7°C 99% 10.1 mph NW16.3 kmh NW 18.0 mph29.0 kmh 29.83 in1010.2 mb 0.07 in1.8 mm 0.00 in0.0 mm 0.69 in17.5 mm
07:15 AM 37.1°F2.8°C 36.8°F2.7°C 99% 11.1 mph NW17.9 kmh NW 19.0 mph30.6 kmh 29.82 in1009.8 mb 0.09 in2.3 mm 0.00 in0.0 mm 0.68 in17.3 mm
07:00 AM 37.2°F2.9°C 36.7°F2.6°C 98% 9.7 mph NW15.6 kmh NW 18.0 mph29.0 kmh 29.82 in1009.8 mb 0.09 in2.3 mm 0.00 in0.0 mm 0.66 in16.8 mm
06:45 AM 37.2°F2.9°C 36.7°F2.6°C 98% 9.6 mph NW15.4 kmh NW 18.0 mph29.0 kmh 29.81 in1009.5 mb 0.09 in2.3 mm 0.08 in2.0 mm 0.64 in16.3 mm
06:30 AM 36.7°F2.6°C 36.2°F2.3°C 98% 3.4 mph NW5.5 kmh NW 10.0 mph16.1 kmh 29.82 in1009.8 mb 0.07 in1.8 mm 0.04 in1.0 mm 0.61 in15.5 mm
06:15 AM 36.4°F2.4°C 35.9°F2.2°C 98% 4.1 mph NW6.6 kmh NW 7.0 mph11.3 kmh 29.82 in1009.8 mb 0.06 in1.5 mm 0.00 in0.0 mm 0.59 in15.0 mm
06:00 AM 36.4°F2.4°C 35.9°F2.2°C 98% 5.9 mph NW9.5 kmh NW 11.0 mph17.7 kmh 29.81 in1009.5 mb 0.06 in1.5 mm 0.00 in0.0 mm 0.57 in14.5 mm
05:45 AM 36.2°F2.3°C 35.7°F2.1°C 98% 7.8 mph NW12.6 kmh NW 15.0 mph24.1 kmh 29.80 in1009.1 mb 0.06 in1.5 mm 0.00 in0.0 mm 0.55 in14.0 mm
05:30 AM 35.9°F2.2°C 35.4°F1.9°C 98% 9.4 mph NW15.1 kmh NW 15.0 mph24.1 kmh 29.79 in1008.8 mb 0.08 in2.0 mm 0.00 in0.0 mm 0.54 in13.7 mm
05:15 AM 35.6°F2.0°C 35.1°F1.7°C 98% 8.6 mph NW13.8 kmh NW 14.0 mph22.5 kmh 29.80 in1009.1 mb 0.09 in2.3 mm 0.00 in0.0 mm 0.54 in13.7 mm
05:00 AM 35.4°F1.9°C 34.9°F1.6°C 98% 7.8 mph NW12.6 kmh NW 14.0 mph22.5 kmh 29.80 in1009.1 mb 0.09 in2.3 mm 0.00 in0.0 mm 0.51 in13.0 mm
04:45 AM 35.3°F1.8°C 34.8°F1.6°C 98% 6.1 mph NW9.8 kmh NW 11.0 mph17.7 kmh 29.81 in1009.5 mb 0.09 in2.3 mm 0.04 in1.0 mm 0.49 in12.4 mm
04:30 AM 35.4°F1.9°C 34.9°F1.6°C 98% 6.3 mph NW10.1 kmh NW 14.0 mph22.5 kmh 29.80 in1009.1 mb 0.08 in2.0 mm 0.08 in2.0 mm 0.46 in11.7 mm
04:15 AM 35.8°F2.1°C 35.3°F1.8°C 98% 7.6 mph WNW12.2 kmh WNW 15.0 mph24.1 kmh 29.80 in1009.1 mb 0.06 in1.5 mm 0.00 in0.0 mm 0.44 in11.2 mm
04:00 AM 36.3°F2.4°C 35.8°F2.1°C 98% 5.7 mph WNW9.2 kmh WNW 13.0 mph20.9 kmh 29.81 in1009.5 mb 0.07 in1.8 mm 0.00 in0.0 mm 0.42 in10.7 mm
03:45 AM 36.0°F2.2°C 35.5°F1.9°C 98% 5.4 mph NW8.7 kmh NW 10.0 mph16.1 kmh 29.82 in1009.8 mb 0.08 in2.0 mm 0.00 in0.0 mm 0.40 in10.2 mm
03:30 AM 35.5°F1.9°C 35.0°F1.7°C 98% 7.1 mph NW11.4 kmh NW 13.0 mph20.9 kmh 29.82 in1009.8 mb 0.11 in2.8 mm 0.00 in0.0 mm 0.39 in9.9 mm
03:15 AM 35.3°F1.8°C 34.8°F1.6°C 98% 7.7 mph NW12.4 kmh NW 13.0 mph20.9 kmh 29.82 in1009.8 mb 0.16 in4.1 mm 0.00 in0.0 mm 0.38 in9.7 mm
03:00 AM 35.6°F2.0°C 35.1°F1.7°C 98% 6.2 mph WNW10.0 kmh WNW 14.0 mph22.5 kmh 29.84 in1010.5 mb 0.17 in4.3 mm 0.00 in0.0 mm 0.35 in8.9 mm
02:45 AM 35.9°F2.2°C 35.1°F1.7°C 97% 9.5 mph NW15.3 kmh NW 17.0 mph27.4 kmh 29.85 in1010.8 mb 0.17 in4.3 mm 0.00 in0.0 mm 0.32 in8.1 mm
02:30 AM 36.5°F2.5°C 35.7°F2.1°C 97% 10.4 mph NW16.7 kmh NW 17.0 mph27.4 kmh 29.87 in1011.5 mb 0.17 in4.3 mm 0.00 in0.0 mm 0.27 in6.9 mm
02:15 AM 36.8°F2.7°C 36.0°F2.2°C 97% 10.0 mph NW16.1 kmh NW 17.0 mph27.4 kmh 29.88 in1011.9 mb 0.17 in4.3 mm 0.00 in0.0 mm 0.22 in5.6 mm
02:00 AM 36.9°F2.7°C 36.1°F2.3°C 97% 10.9 mph NW17.5 kmh NW 19.0 mph30.6 kmh 29.90 in1012.5 mb 0.18 in4.6 mm 0.00 in0.0 mm 0.18 in4.6 mm
01:45 AM 37.2°F2.9°C 36.4°F2.4°C 97% 11.5 mph NW18.5 kmh NW 21.0 mph33.8 kmh 29.91 in1012.9 mb 0.20 in5.1 mm 0.00 in0.0 mm 0.15 in3.8 mm
01:30 AM 37.5°F3.1°C 36.7°F2.6°C 97% 11.9 mph NW19.2 kmh NW 23.0 mph37.0 kmh 29.91 in1012.9 mb 0.23 in5.8 mm 0.00 in0.0 mm 0.10 in2.5 mm
01:15 AM 38.0°F3.3°C 37.0°F2.8°C 96% 10.7 mph NW17.2 kmh NW 22.0 mph35.4 kmh 29.91 in1012.9 mb 0.23 in5.8 mm 0.04 in1.0 mm 0.05 in1.3 mm
01:00 AM 38.4°F3.6°C 37.4°F3.0°C 96% 10.8 mph NW17.4 kmh NW 19.0 mph30.6 kmh 29.92 in1013.2 mb 0.22 in5.6 mm 0.04 in1.0 mm 0.22 in5.6 mm
12:45 AM 39.5°F4.2°C 37.1°F2.8°C 91% 11.7 mph NW18.8 kmh NW 20.0 mph32.2 kmh 29.92 in1013.2 mb 0.19 in4.8 mm 0.24 in6.1 mm 0.20 in5.1 mm
12:30 AM 39.9°F4.4°C 37.5°F3.1°C 91% 10.2 mph NW16.4 kmh NW 14.0 mph22.5 kmh 29.92 in1013.2 mb 0.13 in3.3 mm 0.20 in5.1 mm 0.13 in3.3 mm
12:15 AM 40.5°F4.7°C 37.5°F3.1°C 89% 9.7 mph NNW15.6 kmh NNW 18.0 mph29.0 kmh 29.93 in1013.5 mb 0.08 in2.0 mm 0.16 in4.1 mm 0.08 in2.0 mm
12:00 AM 41.1°F5.1°C 37.2°F2.9°C 86% 10.9 mph NNW17.5 kmh NNW 20.0 mph32.2 kmh 29.93 in1013.5 mb 0.04 in1.0 mm 0.00 in0.0 mm 0.04 in1.0 mm